TISX/STX METAR and TAF weather

Enter ICAO airport designator
Station Type Date Time Source
TISX METAR 2023/02/05 14:15 UTC NOAA

TISX 051415Z 09020G28KT 10SM SCT027 BKN075 BKN090 28/20 A3018 RMK AO2 PK WND 10028/1409 T02780200


Station Type Date Time Source
TISX Decoded METAR 2023/02/05 14:15 UTC NOAA

Christiansted, Henry E. Rohlsen Airport, Virgin Islands (TISX) 17-42N 064-48W 17M
Feb 05, 2023 - 09:15 AM EST / 2023.02.05 1415 UTC
Wind: from the E (090 degrees) at 23 MPH (20 KT) gusting to 32 MPH (28 KT):0
Visibility: 10 mile(s):0
Sky conditions: mostly cloudy
Temperature: 82.0 F (27.8 C)
Dew Point: 68.0 F (20.0 C)
Relative Humidity: 62%
Pressure (altimeter): 30.18 in. Hg (1022 hPa)
ob: TISX 051415Z 09020G28KT 10SM SCT027 BKN075 BKN090 28/20 A3018 RMK AO2 PK WND 10028/1409 T02780200
cycle: 14

Station Type Date Time Source
TISX TAF 2023/02/05 12:28 UTC NOAA

TAF TISX 051120Z 0512/0612 06010KT P6SM -RA SCT025 BKN050
FM051400 09016G26KT P6SM VCSH SCT025 SCT040
FM052300 07010KT P6SM FEW025 SCT050

Example: see airport list